Bladensburg, MD (20710)

11:11 AM EST on January 18, 2017 (GMT -0500)
Riverdale Park | | Change Station
Active Advisory: Small Craft Advisory

Elev 52 ft 38.96 °N, 76.94 °W | Updated 17 seconds ago

Partly Cloudy
Partly Cloudy
55.4 °F
Feels Like 55.4 °F
N
15.0
Wind Variable Wind from NW
Gusts 28.0 mph

Today
High -- | Low -- °F
--% Chance of Precip.
Yesterday
High -- | Low -- °F
Precip. -- in
Pressure 29.95 in
Visibility 10.0 miles
Clouds Few 7000 ft
Scattered Clouds 12000 ft
Dew Point 44 °F
Humidity 65%
Rainfall 0.00 in
Snow Depth Not available.
7:23 AM 5:13 PM
Waning Gibbous, 62% visible
METAR KDCA 181552Z 30011G21KT 10SM FEW070 SCT120 14/07 A2995 RMK AO2 SLP142 T01390067
Pressure 29.95 in
Visibility 10.0 miles
Clouds Few 7000 ft
Scattered Clouds 12000 ft
Dew Point 44 °F
Humidity 65%
Rainfall 0.00 in
Snow Depth Not available.
7:23 AM 5:13 PM
Waning Gibbous, 62% visible
METAR KDCA 181552Z 30011G21KT 10SM FEW070 SCT120 14/07 A2995 RMK AO2 SLP142 T01390067

Get Your Daily Forecast Email!

Thanks for signing up!

Be on the lookout for a verification email in your inbox.

You'll start receiving the daily forecast at 8 AM.

×

10-Day Weather Forecast

Almanac

Astronomy

Jan. 18, 2017 Rise Set
Actual Time
Civil Twilight
Nautical Twilight
Astronomical Twilight
Moon
Length of Visible Light
Length of Day
Tomorrow will be .
, % of the Moon is Illuminated

Today's Extremes

State Highs State Lows

Community

WunderPhotos

Upload Photos

1,962,540 photos uploaded!

WunderBlog® & News

Nearby

Air Quality

  Air Quality AQ Index Pollutant
Not available.

Snow Depth

Station Depth Elevation

Earthquake Activity

City Distance Mag. Time & Date
Minimum magnitude displayed is 2.5.

Coastal Water Temperatures

Place Temperature

Stations

Nearby Weather Stations

Station Location Temp. Windchill Dew Point Humidity Wind Precip. Elev Updated Type
                   

Watches & Warnings

Small Craft Advisory
Issued: 9:27 AM EST Jan. 18, 2017 – National Weather Service

... Small Craft Advisory now in effect until 8 PM EST this
evening...

* winds... 18 to 33 knots within the Small Craft Advisory.

Precautionary/preparedness actions...

A Small Craft Advisory means winds of 18 to 33 knots are imminent
or occurring. Boaters operating smaller vessels should avoid
navigating in these conditions.